Time;durP1;ratioP1;P1;durP2;ratioP2;P2;SDS_P1;SDS_P2;PMS_P1;PMS_P2;Temp;Humidity;BMP_temperature;BMP_pressure;BME280_temperature;BME280_humidity;BME280_pressure;Samples;Min_cycle;Max_cycle;Signal;HPM_P1;HPM_P2
2022/04/18 00:02:06;;;;;;;1.00;0.70;;;;;;;5.96;86.95;99784.00;5006096;28;20026;-29
2022/04/18 00:04:33;;;;;;;1.60;0.85;;;;;;;5.98;87.74;99760.81;5006049;28;20061;-29
2022/04/18 00:07:02;;;;;;;1.48;0.80;;;;;;;5.90;87.95;99763.59;5007271;28;20494;-32
2022/04/18 00:09:30;;;;;;;1.90;0.63;;;;;;;5.87;88.52;99779.06;5006295;28;20091;-30
2022/04/18 00:11:56;;;;;;;1.60;0.50;;;;;;;6.00;88.19;99769.38;5007486;28;20058;-31
2022/04/18 00:14:23;;;;;;;0.95;0.35;;;;;;;6.15;87.76;99773.72;5007547;28;20069;-32
2022/04/18 00:16:48;;;;;;;0.73;0.70;;;;;;;6.09;88.49;99777.16;5007328;28;20100;-33
2022/04/18 00:19:13;;;;;;;0.52;0.38;;;;;;;5.97;87.52;99768.97;5007420;28;20022;-36
2022/04/18 00:21:39;;;;;;;0.57;0.38;;;;;;;6.07;85.75;99766.78;5007229;28;20115;-31
2022/04/18 00:24:05;;;;;;;0.95;0.80;;;;;;;5.82;86.64;99761.09;5007645;28;20482;-36
2022/04/18 00:26:30;;;;;;;0.80;0.55;;;;;;;5.94;86.95;99772.78;5007396;28;20534;-29
2022/04/18 00:28:55;;;;;;;1.58;0.80;;;;;;;6.01;87.49;99778.16;5005847;28;20037;-29
2022/04/18 00:31:21;;;;;;;1.13;0.52;;;;;;;5.82;87.94;99758.47;5007373;28;20026;-31
2022/04/18 00:33:47;;;;;;;1.60;0.80;;;;;;;5.87;87.38;99769.28;5007315;28;20029;-29
2022/04/18 00:36:12;;;;;;;1.00;0.60;;;;;;;5.97;87.64;99779.56;5006677;28;20081;-29
2022/04/18 00:38:38;;;;;;;1.45;0.90;;;;;;;5.91;87.91;99769.72;5005638;28;20084;-34
2022/04/18 00:41:05;;;;;;;1.52;0.80;;;;;;;5.82;87.78;99771.69;5007361;28;20033;-34
2022/04/18 00:43:47;;;;;;;1.55;0.80;;;;;;;5.67;88.51;99763.06;5008781;28;20262;-32
2022/04/18 00:46:16;;;;;;;6.47;2.70;;;;;;;5.58;89.36;99759.75;5010974;28;20034;-29
2022/04/18 00:48:42;;;;;;;4.72;2.63;;;;;;;5.62;89.12;99772.41;5008886;28;20132;-30
2022/04/18 00:51:11;;;;;;;4.45;2.95;;;;;;;5.68;87.95;99759.38;5009293;28;20038;-29
2022/04/18 00:53:38;;;;;;;2.53;1.58;;;;;;;5.61;88.39;99762.81;5025980;28;20037;-29
2022/04/18 00:56:05;;;;;;;1.35;0.93;;;;;;;5.40;88.70;99757.59;5010663;28;20113;-31
2022/04/18 00:58:32;;;;;;;0.20;0.20;;;;;;;5.26;90.02;99753.22;5025296;28;20508;-32
2022/04/18 01:00:58;;;;;;;0.90;0.52;;;;;;;5.34;90.77;99755.72;5008881;28;20038;-30
2022/04/18 01:03:23;;;;;;;0.95;0.28;;;;;;;5.19;89.95;99745.22;5010395;28;20033;-29
2022/04/18 01:05:49;;;;;;;1.15;0.22;;;;;;;5.26;89.30;99734.72;5010829;28;20933;-29
2022/04/18 01:08:15;;;;;;;0.90;0.40;;;;;;;5.33;90.21;99748.78;5010609;28;20042;-30
2022/04/18 01:10:42;;;;;;;1.05;0.55;;;;;;;5.56;89.41;99752.00;5010063;28;20033;-29
2022/04/18 01:13:07;;;;;;;1.17;0.30;;;;;;;5.47;88.74;99747.88;5010621;28;20449;-29
2022/04/18 01:15:33;;;;;;;0.65;0.40;;;;;;;5.36;88.82;99735.19;5010019;28;20030;-33
2022/04/18 01:17:58;;;;;;;1.33;0.55;;;;;;;5.38;89.33;99746.41;5010151;28;20026;-29
2022/04/18 01:20:35;;;;;;;1.23;0.40;;;;;;;5.26;89.46;99729.44;5008591;28;20379;-29
2022/04/18 01:23:01;;;;;;;0.55;0.38;;;;;;;5.22;88.52;99743.00;5009091;28;20532;-29
2022/04/18 01:30:56;;;;;;;1.23;0.60;;;;;;;5.06;90.06;99740.66;5037159;28;20124;-29
2022/04/18 01:33:22;;;;;;;0.77;0.50;;;;;;;5.08;89.86;99717.50;5010092;28;20104;-30
2022/04/18 01:35:47;;;;;;;0.85;0.57;;;;;;;5.22;90.00;99734.28;5009749;28;20061;-31
2022/04/18 01:38:13;;;;;;;1.75;0.88;;;;;;;5.20;90.25;99710.66;5010035;28;20113;-29
2022/04/18 01:40:39;;;;;;;2.80;1.10;;;;;;;5.38;88.91;99727.88;5009533;28;20489;-32
2022/04/18 01:43:05;;;;;;;1.00;0.70;;;;;;;5.20;89.42;99721.25;5009927;28;20026;-31
2022/04/18 01:45:31;;;;;;;0.47;0.47;;;;;;;5.15;89.13;99709.59;5009785;28;20037;-34
2022/04/18 01:47:56;;;;;;;0.93;0.50;;;;;;;5.19;90.13;99719.63;5009708;28;20022;-31
2022/04/18 01:50:22;;;;;;;0.73;0.35;;;;;;;4.99;91.19;99713.38;5009554;28;20045;-31
2022/04/18 01:52:47;;;;;;;4.82;2.00;;;;;;;4.93;90.91;99699.09;5009563;28;20025;-31
2022/04/18 01:55:12;;;;;;;5.05;1.80;;;;;;;4.59;92.29;99691.88;5009716;28;20026;-35
2022/04/18 01:57:38;;;;;;;4.00;1.70;;;;;;;4.76;91.38;99709.09;5009428;28;20029;-32
2022/04/18 02:00:04;;;;;;;10.88;3.90;;;;;;;4.80;91.99;99709.53;5009656;28;20029;-38
2022/04/18 02:02:29;;;;;;;7.25;3.05;;;;;;;4.91;91.10;99702.94;5009482;28;20026;-31
2022/04/18 02:04:55;;;;;;;3.88;1.70;;;;;;;5.11;91.55;99714.47;5009448;28;20026;-31
2022/04/18 02:07:21;;;;;;;2.00;1.08;;;;;;;5.26;90.73;99718.84;5024407;28;20030;-30
2022/04/18 02:09:46;;;;;;;1.70;0.90;;;;;;;5.50;90.71;99720.25;5009133;28;20029;-36
2022/04/18 02:12:12;;;;;;;0.50;0.40;;;;;;;5.57;89.49;99711.31;5009103;28;20445;-29
2022/04/18 02:14:37;;;;;;;1.40;0.73;;;;;;;5.60;87.87;99700.34;5008973;28;20483;-29
2022/04/18 02:17:03;;;;;;;1.83;0.90;;;;;;;5.69;88.00;99697.53;5007696;28;20026;-30
2022/04/18 02:19:28;;;;;;;0.68;0.50;;;;;;;5.85;87.60;99710.44;5008957;28;20033;-33
2022/04/18 02:21:54;;;;;;;0.80;0.70;;;;;;;5.66;87.88;99706.69;5009054;28;20026;-30
2022/04/18 02:24:19;;;;;;;0.77;0.60;;;;;;;5.75;86.59;99707.34;5007354;28;20025;-33
2022/04/18 02:26:45;;;;;;;1.05;0.70;;;;;;;5.61;88.23;99712.56;5007202;28;20025;-33
2022/04/18 02:29:10;;;;;;;0.60;0.60;;;;;;;5.39;87.88;99687.19;5009255;28;20033;-31
2022/04/18 02:32:47;;;;;;;1.58;0.65;;;;;;;5.58;88.26;99707.66;5008942;28;20934;-30
2022/04/18 02:34:21;;;;;;;0.90;0.55;;;;;;;5.56;88.40;99699.09;5008735;28;20030;-30
2022/04/18 02:36:47;;;;;;;0.65;0.60;;;;;;;5.67;89.16;99705.66;5006908;28;20127;-33
2022/04/18 02:39:12;;;;;;;1.25;0.70;;;;;;;5.74;89.47;99706.53;5008703;28;20040;-30
2022/04/18 02:41:37;;;;;;;1.15;0.70;;;;;;;5.59;89.57;99677.53;5009015;28;20111;-32
2022/04/18 02:44:04;;;;;;;0.90;0.70;;;;;;;5.78;89.13;99706.94;5009036;28;20033;-33
2022/04/18 02:46:29;;;;;;;2.22;0.70;;;;;;;5.76;88.49;99693.09;5008302;28;20399;-32
2022/04/18 02:48:54;;;;;;;2.35;0.70;;;;;;;5.51;90.14;99684.81;5008772;28;20168;-35
2022/04/18 02:51:20;;;;;;;0.60;0.50;;;;;;;5.93;89.68;99702.34;5007402;28;20026;-31
2022/04/18 02:53:45;;;;;;;1.10;0.70;;;;;;;5.76;89.05;99706.31;5008294;28;20030;-33
2022/04/18 02:56:11;;;;;;;1.20;0.70;;;;;;;5.51;89.59;99700.69;5008568;28;20173;-32
2022/04/18 02:58:36;;;;;;;1.48;0.70;;;;;;;5.23;89.92;99677.72;5008376;28;20374;-32
2022/04/18 03:01:02;;;;;;;1.77;0.90;;;;;;;5.30;90.71;99680.44;5008496;28;20040;-30
2022/04/18 03:03:27;;;;;;;2.15;1.13;;;;;;;5.42;90.51;99698.22;5040020;28;20049;-29
2022/04/18 03:05:53;;;;;;;2.70;1.02;;;;;;;5.55;91.60;99701.94;5023070;28;20128;-30
2022/04/18 03:08:18;;;;;;;1.70;1.05;;;;;;;5.67;90.82;99704.84;5007843;28;20483;-34
2022/04/18 03:13:28;;;;;;;3.13;1.40;;;;;;;5.87;87.78;99702.31;5008265;28;20117;-33
2022/04/18 03:15:54;;;;;;;3.33;1.50;;;;;;;5.74;87.34;99689.81;5006866;28;20113;-30
2022/04/18 03:18:20;;;;;;;3.40;1.77;;;;;;;5.69;87.99;99686.97;5007946;28;20834;-30
2022/04/18 03:20:45;;;;;;;3.15;1.50;;;;;;;5.78;89.10;99699.00;5039576;28;20040;-29
2022/04/18 03:23:11;;;;;;;3.05;1.40;;;;;;;5.69;88.67;99689.59;5008392;28;20645;-29
2022/04/18 03:25:37;;;;;;;3.10;1.60;;;;;;;5.77;87.80;99706.13;5008096;28;20041;-29
2022/04/18 03:28:03;;;;;;;2.45;1.50;;;;;;;5.64;87.95;99706.06;5008201;28;20108;-30
2022/04/18 03:30:28;;;;;;;3.05;1.50;;;;;;;5.48;88.53;99703.75;5006213;28;20125;-33
2022/04/18 03:32:54;;;;;;;2.25;1.30;;;;;;;5.28;89.43;99690.38;5008072;28;20100;-30
2022/04/18 03:35:19;;;;;;;3.30;1.40;;;;;;;5.40;89.47;99704.72;5005931;28;20061;-29
2022/04/18 03:40:28;;;;;;;3.00;1.48;;;;;;;5.43;90.33;99705.16;5007572;28;20168;-31
2022/04/18 03:42:54;;;;;;;3.15;1.35;;;;;;;5.35;89.50;99678.00;5007925;28;20058;-29
2022/04/18 03:45:19;;;;;;;3.20;1.75;;;;;;;5.19;90.92;99687.06;5022915;28;20033;-39
2022/04/18 03:47:45;;;;;;;4.30;1.58;;;;;;;5.28;90.47;99696.50;5007804;28;20072;-37
2022/04/18 03:50:10;;;;;;;3.22;1.60;;;;;;;5.22;90.21;99679.56;5007805;28;20133;-30
2022/04/18 03:52:35;;;;;;;4.50;2.00;;;;;;;5.34;91.27;99692.25;5007737;28;20219;-31
2022/04/18 03:55:01;;;;;;;5.25;2.47;;;;;;;5.46;90.63;99692.53;5007928;28;20041;-29
2022/04/18 03:57:26;;;;;;;4.68;2.35;;;;;;;5.40;90.81;99686.19;5006400;28;20076;-33
2022/04/18 03:59:52;;;;;;;4.10;1.73;;;;;;;5.11;91.75;99695.97;5007848;28;20038;-33
2022/04/18 04:02:17;;;;;;;6.28;1.75;;;;;;;5.18;91.68;99673.03;5007303;28;20072;-42
2022/04/18 04:04:43;;;;;;;3.47;1.60;;;;;;;5.47;91.30;99694.97;5006132;28;20044;-30
2022/04/18 04:07:09;;;;;;;3.03;1.45;;;;;;;5.50;90.31;99694.59;5007749;28;20034;-34
2022/04/18 04:09:34;;;;;;;3.50;1.42;;;;;;;5.54;92.63;99695.03;5007612;28;20037;-31
2022/04/18 04:12:00;;;;;;;2.92;1.92;;;;;;;5.61;92.25;99696.69;5007620;28;20029;-30
2022/04/18 04:14:26;;;;;;;4.32;1.77;;;;;;;5.66;90.65;99697.91;5006024;28;20526;-32
2022/04/18 04:16:51;;;;;;;2.70;1.48;;;;;;;5.63;91.13;99694.66;5007180;28;20079;-34
2022/04/18 04:19:17;;;;;;;3.25;1.70;;;;;;;5.67;90.81;99694.28;5010068;28;20060;-30
2022/04/18 04:21:42;;;;;;;4.03;1.80;;;;;;;5.46;90.65;99674.84;5011552;28;20405;-30
2022/04/18 04:24:08;;;;;;;2.45;1.50;;;;;;;5.57;91.67;99690.16;5011244;28;20018;-29
2022/04/18 04:26:33;;;;;;;3.85;1.88;;;;;;;5.50;91.23;99689.31;5011104;28;20425;-29
2022/04/18 04:28:59;;;;;;;2.95;1.60;;;;;;;5.64;91.11;99692.84;5011244;28;20533;-32
2022/04/18 04:31:24;;;;;;;3.10;1.40;;;;;;;5.61;90.82;99675.50;5011196;28;20091;-29
2022/04/18 04:33:50;;;;;;;5.97;1.95;;;;;;;5.73;90.97;99698.78;5009728;28;20095;-33
2022/04/18 04:36:15;;;;;;;2.10;1.27;;;;;;;5.69;92.24;99674.53;5009180;28;20111;-29
2022/04/18 04:38:41;;;;;;;1.88;1.08;;;;;;;5.95;90.05;99703.00;5011024;28;20069;-30
2022/04/18 04:41:06;;;;;;;3.13;1.23;;;;;;;5.90;88.86;99686.84;5010978;28;20091;-35
2022/04/18 04:43:32;;;;;;;5.40;1.98;;;;;;;5.81;89.81;99688.03;5011182;28;20555;-30
2022/04/18 04:46:00;;;;;;;2.58;1.50;;;;;;;5.75;91.25;99702.88;5010641;28;20033;-32
2022/04/18 04:48:26;;;;;;;4.93;2.55;;;;;;;5.98;89.70;99715.81;5009567;28;20037;-30
2022/04/18 04:50:51;;;;;;;3.35;1.50;;;;;;;5.77;89.00;99694.72;5009763;28;20030;-30
2022/04/18 04:53:17;;;;;;;3.00;1.73;;;;;;;5.83;90.51;99709.81;5009260;28;20422;-35
2022/04/18 04:55:42;;;;;;;2.35;1.35;;;;;;;5.92;90.71;99698.03;5010688;28;20065;-31
2022/04/18 04:58:09;;;;;;;3.67;1.40;;;;;;;6.11;89.44;99720.38;5010909;28;20030;-30
2022/04/18 05:00:36;;;;;;;2.03;1.35;;;;;;;5.92;89.24;99713.94;5009084;28;20029;-32
2022/04/18 05:03:02;;;;;;;2.70;1.35;;;;;;;6.03;88.85;99715.25;5025719;28;20029;-29
2022/04/18 05:05:28;;;;;;;5.13;2.40;;;;;;;5.67;90.27;99702.22;5009509;28;20029;-29
2022/04/18 05:07:53;;;;;;;5.15;2.60;;;;;;;5.49;90.28;99698.25;5009118;28;20026;-31
2022/04/18 05:10:19;;;;;;;6.90;3.45;;;;;;;5.54;90.54;99717.00;5010304;28;20018;-35
2022/04/18 05:12:44;;;;;;;7.72;2.90;;;;;;;5.56;91.56;99716.81;5010539;28;20466;-29
2022/04/18 05:15:10;;;;;;;5.32;2.35;;;;;;;5.41;91.78;99719.56;5010104;28;20935;-35
2022/04/18 05:17:35;;;;;;;5.30;2.42;;;;;;;5.37;92.73;99705.09;5010701;28;20529;-36
2022/04/18 05:20:03;;;;;;;6.38;3.60;;;;;;;5.52;92.62;99719.03;5010403;28;20026;-30
2022/04/18 05:22:29;;;;;;;5.95;2.75;;;;;;;5.54;91.91;99727.59;5008822;28;20037;-29
2022/04/18 05:24:55;;;;;;;4.47;2.65;;;;;;;5.63;91.97;99707.88;5010080;28;20022;-30
2022/04/18 05:27:21;;;;;;;4.10;2.40;;;;;;;5.77;90.85;99718.53;5010064;28;20129;-34
2022/04/18 05:29:47;;;;;;;3.95;2.63;;;;;;;5.74;90.56;99726.88;5008335;28;20089;-30
2022/04/18 05:32:12;;;;;;;4.22;2.15;;;;;;;5.78;91.86;99725.47;5009936;28;20029;-30
2022/04/18 05:34:38;;;;;;;3.50;2.08;;;;;;;5.83;91.09;99725.69;5008423;28;20083;-32
2022/04/18 05:37:04;;;;;;;5.45;2.58;;;;;;;5.95;90.62;99728.66;5009775;28;20517;-30
2022/04/18 05:39:30;;;;;;;4.78;2.25;;;;;;;5.85;90.00;99718.38;5008493;28;20045;-30
2022/04/18 05:41:59;;;;;;;4.47;2.10;;;;;;;5.89;90.96;99716.97;5008289;28;20053;-34
2022/04/18 05:44:25;;;;;;;4.47;1.98;;;;;;;6.06;91.18;99729.91;5008154;28;20034;-29
2022/04/18 05:46:50;;;;;;;4.13;2.20;;;;;;;5.98;91.17;99713.16;5008589;28;20096;-29
2022/04/18 05:49:16;;;;;;;3.33;1.90;;;;;;;6.23;89.07;99720.59;5010038;28;20536;-30
2022/04/18 05:51:42;;;;;;;6.13;2.13;;;;;;;6.25;89.72;99729.16;5008462;28;20042;-30
2022/04/18 05:54:08;;;;;;;3.83;2.03;;;;;;;6.40;89.69;99716.56;5024889;28;20062;-30
2022/04/18 05:56:34;;;;;;;4.13;2.30;;;;;;;6.58;87.75;99731.09;5008100;28;20621;-30
2022/04/18 05:58:59;;;;;;;5.35;2.50;;;;;;;6.53;88.06;99728.22;5009442;28;20030;-29
2022/04/18 06:01:26;;;;;;;4.40;2.75;;;;;;;6.30;89.25;99710.84;5009863;28;20029;-29
2022/04/18 06:03:52;;;;;;;3.65;2.30;;;;;;;6.28;88.50;99734.06;5008241;28;20030;-35
2022/04/18 06:06:17;;;;;;;3.80;2.08;;;;;;;6.11;88.53;99720.38;5009415;28;20109;-41
2022/04/18 06:08:43;;;;;;;4.20;2.58;;;;;;;6.16;89.35;99743.59;5009367;28;20037;-35
2022/04/18 06:11:08;;;;;;;5.10;2.80;;;;;;;5.96;90.37;99730.25;5009409;28;20025;-30
2022/04/18 06:13:34;;;;;;;5.95;3.25;;;;;;;5.88;91.30;99739.16;5009149;28;20032;-35
2022/04/18 06:15:59;;;;;;;6.32;4.28;;;;;;;5.99;91.37;99736.00;5009367;28;20100;-35
2022/04/18 06:18:26;;;;;;;4.82;3.03;;;;;;;5.92;91.70;99735.09;5007729;28;20029;-29
2022/04/18 06:20:52;;;;;;;5.32;3.60;;;;;;;6.09;89.20;99758.63;5007756;28;20808;-32
2022/04/18 06:23:17;;;;;;;3.67;2.45;;;;;;;6.11;88.40;99738.91;5007855;28;20048;-33
2022/04/18 06:25:43;;;;;;;5.28;3.30;;;;;;;6.16;89.39;99719.75;5008907;28;20135;-33
2022/04/18 06:28:09;;;;;;;5.70;3.20;;;;;;;6.33;88.47;99746.69;5007373;28;20521;-32
2022/04/18 06:30:35;;;;;;;5.70;3.42;;;;;;;6.26;87.96;99749.34;5009211;28;20112;-31
2022/04/18 06:33:00;;;;;;;6.32;3.92;;;;;;;6.09;88.72;99750.69;5009282;28;20041;-29
2022/04/18 06:35:26;;;;;;;6.88;5.50;;;;;;;6.04;89.72;99738.84;5008485;28;20045;-33
2022/04/18 06:37:51;;;;;;;8.23;5.38;;;;;;;6.34;88.82;99743.84;5009649;28;20034;-31
2022/04/18 06:40:17;;;;;;;11.05;6.28;;;;;;;6.41;89.53;99739.38;5008314;28;20032;-41
2022/04/18 06:42:42;;;;;;;14.35;8.77;;;;;;;6.43;89.27;99740.00;5008731;28;20478;-29
2022/04/18 06:45:08;;;;;;;8.18;5.40;;;;;;;6.36;89.01;99749.78;5008715;28;20022;-34
2022/04/18 06:47:34;;;;;;;8.18;5.70;;;;;;;6.23;89.85;99750.56;5007340;28;20030;-30
2022/04/18 06:50:00;;;;;;;8.48;5.35;;;;;;;6.18;89.68;99736.25;5008877;28;20033;-30
2022/04/18 06:52:25;;;;;;;9.00;6.53;;;;;;;6.06;90.27;99745.78;5006982;28;20034;-32
2022/04/18 06:54:51;;;;;;;7.13;4.85;;;;;;;6.54;90.19;99758.97;5008617;28;20081;-30
2022/04/18 06:57:16;;;;;;;7.75;4.97;;;;;;;6.37;88.68;99759.34;5008392;28;20038;-29
2022/04/18 06:59:43;;;;;;;6.38;4.55;;;;;;;6.38;88.87;99765.47;5008723;28;20091;-29
2022/04/18 07:02:08;;;;;;;7.38;5.38;;;;;;;6.62;89.15;99766.78;5008635;28;20503;-33
2022/04/18 07:04:34;;;;;;;7.30;4.60;;;;;;;6.59;89.34;99759.22;5008300;28;20041;-29
2022/04/18 07:07:00;;;;;;;6.07;4.00;;;;;;;6.77;87.53;99777.19;5008588;28;20117;-30
2022/04/18 07:09:25;;;;;;;6.75;4.57;;;;;;;6.85;87.09;99753.16;5006946;28;20030;-29
2022/04/18 07:11:51;;;;;;;6.80;4.38;;;;;;;6.92;86.46;99764.56;5006673;28;20033;-31
2022/04/18 07:14:17;;;;;;;6.55;4.50;;;;;;;6.91;85.97;99770.09;5006680;28;20034;-42
2022/04/18 07:16:43;;;;;;;6.82;3.90;;;;;;;6.93;86.47;99762.75;5008398;28;20060;-29
2022/04/18 07:19:09;;;;;;;6.97;4.63;;;;;;;7.01;85.90;99778.47;5006891;28;20033;-36
2022/04/18 07:21:35;;;;;;;6.18;3.97;;;;;;;7.02;84.18;99782.72;5008387;28;20034;-32
2022/04/18 07:24:02;;;;;;;5.22;3.10;;;;;;;7.03;83.89;99771.94;5006768;28;20030;-30
2022/04/18 07:26:27;;;;;;;4.95;3.38;;;;;;;7.32;87.59;99783.16;5006185;28;20049;-37
2022/04/18 07:28:53;;;;;;;5.63;3.13;;;;;;;7.58;84.14;99787.63;5008159;28;20038;-30
2022/04/18 07:31:19;;;;;;;5.65;3.22;;;;;;;7.62;83.23;99772.94;5008012;28;20034;-33
2022/04/18 07:33:44;;;;;;;3.60;2.25;;;;;;;7.55;83.57;99798.66;5007937;28;20030;-30
2022/04/18 07:36:10;;;;;;;2.58;1.83;;;;;;;7.36;78.20;99788.88;5007440;28;20874;-30
2022/04/18 07:38:50;;;;;;;4.55;2.80;;;;;;;7.34;78.39;99806.84;5007883;28;20033;-29
2022/04/18 07:41:21;;;;;;;4.07;2.22;;;;;;;7.10;81.49;99782.53;5008007;28;20026;-33
2022/04/18 07:43:48;;;;;;;3.80;2.22;;;;;;;7.23;80.88;99793.16;5008208;28;20080;-29
2022/04/18 07:46:17;;;;;;;5.20;2.75;;;;;;;7.27;81.14;99798.84;5006518;28;20129;-30
2022/04/18 07:48:44;;;;;;;3.03;2.00;;;;;;;7.38;82.67;99787.66;5006672;28;20112;-34
2022/04/18 07:53:53;;;;;;;4.78;2.38;;;;;;;7.29;81.01;99793.34;5012172;28;20040;-29
2022/04/18 07:56:22;;;;;;;6.90;3.30;;;;;;;7.53;82.59;99810.50;5011720;28;20041;-34
2022/04/18 07:58:47;;;;;;;3.70;2.35;;;;;;;7.41;80.68;99826.22;5010911;28;20026;-31
2022/04/18 08:01:13;;;;;;;8.75;3.90;;;;;;;7.36;83.09;99810.91;5011913;28;20034;-33
2022/04/18 08:03:39;;;;;;;4.13;2.33;;;;;;;7.34;84.39;99812.94;5027036;28;20173;-30
2022/04/18 08:06:04;;;;;;;2.45;1.50;;;;;;;7.58;79.46;99824.78;5011737;28;20118;-35
2022/04/18 08:08:31;;;;;;;6.65;3.03;;;;;;;7.49;81.32;99815.38;5011188;28;20038;-33
2022/04/18 08:10:57;;;;;;;4.80;2.35;;;;;;;7.41;82.46;99797.03;5010662;28;20036;-29
2022/04/18 08:13:23;;;;;;;3.42;1.60;;;;;;;7.72;78.29;99820.25;5010200;28;20061;-29
2022/04/18 08:15:48;;;;;;;2.92;1.45;;;;;;;7.60;79.18;99828.06;5011486;28;20536;-29
2022/04/18 08:18:14;;;;;;;3.70;1.85;;;;;;;7.77;80.39;99817.81;5011306;28;20041;-31
2022/04/18 08:20:40;;;;;;;3.03;1.60;;;;;;;7.63;80.62;99822.31;5011048;28;20033;-31
2022/04/18 08:23:05;;;;;;;1.50;0.95;;;;;;;7.78;79.09;99823.94;5011702;28;20043;-34
2022/04/18 08:25:31;;;;;;;3.13;1.75;;;;;;;7.84;78.29;99829.22;5011419;28;20026;-36
2022/04/18 08:27:56;;;;;;;2.63;1.45;;;;;;;7.91;78.91;99831.91;5011381;28;20029;-30
2022/04/18 08:30:21;;;;;;;2.70;1.52;;;;;;;7.69;78.76;99814.56;5011032;28;20029;-30
2022/04/18 08:32:47;;;;;;;2.03;1.00;;;;;;;7.84;77.05;99839.03;5011403;28;20029;-30
2022/04/18 08:35:12;;;;;;;1.77;1.33;;;;;;;7.98;78.22;99821.25;5010712;28;20046;-30
2022/04/18 08:37:38;;;;;;;3.30;0.93;;;;;;;7.63;76.04;99835.59;5010077;28;20033;-33
2022/04/18 08:40:06;;;;;;;2.28;1.33;;;;;;;7.56;76.51;99834.78;5011217;28;20124;-30
2022/04/18 08:42:35;;;;;;;3.83;1.65;;;;;;;7.48;77.58;99821.72;5011020;28;20075;-29
2022/04/18 08:45:04;;;;;;;;;;;;;;;7.90;76.58;99835.56;5010283;28;20052;-29
2022/04/18 08:53:00;;;;;;;2.50;1.40;;;;;;;7.88;79.00;99840.25;5010864;28;20037;-33
2022/04/18 08:55:26;;;;;;;3.28;1.05;;;;;;;8.09;72.91;99851.66;5009264;28;20860;-33
2022/04/18 08:57:52;;;;;;;3.28;1.90;;;;;;;8.15;72.06;99845.53;5010657;28;20030;-35
2022/04/18 09:00:18;;;;;;;1.55;1.20;;;;;;;8.43;71.01;99843.41;5010239;28;20030;-34
2022/04/18 09:02:43;;;;;;;0.90;0.73;;;;;;;8.34;68.93;99827.91;5009018;28;20465;-30
2022/04/18 09:05:13;;;;;;;1.00;0.90;;;;;;;8.34;69.65;99849.97;5009814;28;20061;-31
2022/04/18 09:07:43;;;;;;;1.10;0.88;;;;;;;8.63;68.32;99839.88;5009193;28;20465;-29
2022/04/18 09:10:10;;;;;;;21.35;8.85;;;;;;;8.60;69.33;99850.91;5009120;28;20494;-31
2022/04/18 09:12:42;;;;;;;11.60;4.50;;;;;;;8.60;68.94;99837.63;5025236;28;20034;-29
2022/04/18 09:15:09;;;;;;;13.77;5.72;;;;;;;8.54;67.74;99844.63;5009253;28;20453;-29
2022/04/18 09:17:36;;;;;;;11.10;6.25;;;;;;;7.98;70.15;99827.38;5008801;28;20026;-29
2022/04/18 09:20:05;;;;;;;13.20;7.43;;;;;;;7.92;71.28;99854.75;5025432;28;20029;-31
2022/04/18 09:22:31;;;;;;;9.27;4.97;;;;;;;8.05;74.49;99852.09;5010144;28;20034;-33
2022/04/18 09:24:56;;;;;;;4.35;2.42;;;;;;;8.27;73.05;99843.84;5008799;28;20058;-33
2022/04/18 09:27:29;;;;;;;3.65;2.15;;;;;;;7.56;74.26;99852.53;5008643;28;20041;-32
2022/04/18 09:30:05;;;;;;;4.18;2.60;;;;;;;7.71;71.72;99849.69;5008869;28;20030;-34
2022/04/18 09:32:30;;;;;;;3.53;2.05;;;;;;;7.97;72.72;99851.50;5009807;28;20037;-30
2022/04/18 09:35:01;;;;;;;9.13;3.45;;;;;;;7.94;77.12;99850.06;5010010;28;20411;-30
2022/04/18 09:37:30;;;;;;;10.05;4.45;;;;;;;7.86;72.72;99858.22;5008536;28;20132;-32
2022/04/18 09:39:57;;;;;;;7.40;3.58;;;;;;;7.84;73.86;99850.47;5009929;28;20491;-31
2022/04/18 09:42:27;;;;;;;6.93;3.70;;;;;;;7.78;77.09;99845.19;5008247;28;20406;-31
2022/04/18 09:44:53;;;;;;;3.20;1.67;;;;;;;7.38;74.82;99838.06;5008619;28;20044;-31
2022/04/18 09:47:21;;;;;;;16.90;8.50;;;;;;;7.51;76.91;99850.50;5009804;28;20457;-32
2022/04/18 09:49:47;;;;;;;8.75;4.43;;;;;;;7.38;78.44;99847.84;5009845;28;20494;-29
2022/04/18 09:52:16;;;;;;;7.10;3.80;;;;;;;7.51;76.49;99858.47;5008508;28;20034;-35
2022/04/18 09:54:46;;;;;;;8.77;4.15;;;;;;;7.42;78.00;99859.69;5007915;28;20494;-29
2022/04/18 09:57:12;;;;;;;8.38;3.40;;;;;;;7.40;78.81;99853.78;5024893;28;20029;-29
2022/04/18 09:59:39;;;;;;;3.20;1.50;;;;;;;7.28;78.61;99855.41;5008365;28;20037;-29
2022/04/18 10:02:11;;;;;;;4.67;2.10;;;;;;;7.03;79.23;99853.31;5024774;28;20032;-31
2022/04/18 10:04:36;;;;;;;1.75;1.27;;;;;;;7.35;76.17;99856.19;5007991;28;20152;-33
2022/04/18 10:07:04;;;;;;;1.85;1.27;;;;;;;7.31;74.52;99845.16;5009514;28;20149;-29
2022/04/18 10:09:29;;;;;;;1.90;1.30;;;;;;;7.51;75.07;99860.31;5024602;28;20399;-29
2022/04/18 10:11:56;;;;;;;3.30;1.92;;;;;;;7.49;76.94;99843.78;5009566;28;20026;-33
2022/04/18 10:14:22;;;;;;;3.40;1.73;;;;;;;7.37;75.98;99868.22;5007647;28;20033;-31
2022/04/18 10:16:47;;;;;;;7.47;3.45;;;;;;;7.77;77.50;99859.47;5008271;28;20862;-31
2022/04/18 10:19:41;;;;;;;5.15;3.70;;;;;;;8.18;75.79;99863.72;5009642;28;20030;-29
2022/04/18 10:22:25;;;;;;;2.40;1.40;;;;;;;8.13;74.13;99869.66;5008767;28;20034;-31
2022/04/18 10:25:30;;;;;;;4.13;2.00;;;;;;;8.32;73.67;99862.66;5009167;28;20418;-32
2022/04/18 10:28:16;;;;;;;2.42;1.40;;;;;;;8.19;71.12;99862.66;5007456;28;20029;-30
2022/04/18 10:30:49;;;;;;;3.78;2.00;;;;;;;7.95;74.33;99862.31;5007412;28;20029;-29
2022/04/18 10:33:17;;;;;;;2.42;1.67;;;;;;;8.07;72.67;99857.22;5008936;28;20025;-29
2022/04/18 10:36:02;;;;;;;2.35;1.80;;;;;;;7.93;72.80;99848.44;5007196;28;20053;-30
2022/04/18 10:38:31;;;;;;;2.30;1.23;;;;;;;7.90;72.28;99843.53;5007552;28;20026;-29
2022/04/18 10:41:15;;;;;;;2.45;1.38;;;;;;;8.15;73.34;99841.03;5007457;28;20521;-36
2022/04/18 10:44:01;;;;;;;3.45;1.88;;;;;;;8.08;74.46;99855.34;5007698;28;20084;-31
2022/04/18 10:46:27;;;;;;;2.20;1.20;;;;;;;8.27;72.08;99854.47;5008435;28;20022;-29
2022/04/18 10:49:00;;;;;;;3.83;2.13;;;;;;;8.28;75.28;99863.28;5015739;28;20099;-31
2022/04/18 10:51:39;;;;;;;1.85;1.17;;;;;;;8.40;72.33;99854.44;5026513;28;20410;-30
2022/04/18 10:54:08;;;;;;;1.85;1.30;;;;;;;8.11;71.82;99839.00;5024864;28;20042;-34
2022/04/18 10:56:52;;;;;;;;;;;;;;;8.40;70.09;99849.13;5027857;28;20072;-29
2022/04/18 10:59:23;;;;;;;1.05;0.90;;;;;;;8.24;70.15;99852.25;5026585;28;20448;-30
2022/04/18 11:01:50;;;;;;;1.95;1.30;;;;;;;8.23;72.28;99848.78;5023780;28;20756;-30
2022/04/18 11:04:16;;;;;;;5.82;1.83;;;;;;;8.46;72.47;99820.94;5026220;28;20032;-30
2022/04/18 11:06:44;;;;;;;4.20;2.00;;;;;;;8.68;70.97;99847.22;5025823;28;20029;-31
2022/04/18 11:09:21;;;;;;;1.67;1.20;;;;;;;8.95;68.97;99826.59;5026743;28;20171;-30
2022/04/18 11:12:05;;;;;;;3.63;1.13;;;;;;;8.94;69.42;99839.09;5028341;28;20180;-30
2022/04/18 11:14:52;;;;;;;3.38;1.70;;;;;;;9.28;69.45;99846.88;5010755;28;20120;-31
2022/04/18 11:17:33;;;;;;;1.33;1.00;;;;;;;9.66;67.32;99846.75;5026231;28;20037;-30
2022/04/18 11:20:27;;;;;;;5.00;1.63;;;;;;;9.54;65.96;99853.81;5026126;28;20043;-30
2022/04/18 11:23:28;;;;;;;6.80;2.50;;;;;;;9.52;68.05;99851.41;5026447;28;20106;-29
2022/04/18 11:26:04;;;;;;;2.97;1.30;;;;;;;9.05;69.92;99829.59;5026611;28;20494;-29
2022/04/18 11:28:41;;;;;;;2.67;1.40;;;;;;;9.11;70.25;99839.38;5025923;28;20033;-30
2022/04/18 11:31:09;;;;;;;1.65;1.20;;;;;;;8.77;69.30;99838.78;5027851;28;20098;-33
2022/04/18 11:33:42;;;;;;;2.35;1.20;;;;;;;8.89;67.83;99838.09;5026338;28;20038;-29
2022/04/18 11:36:09;;;;;;;20.63;18.75;;;;;;;9.53;64.42;99820.28;5027250;28;20058;-29
2022/04/18 11:38:35;;;;;;;2.33;1.42;;;;;;;9.76;64.42;99820.44;5009575;28;20442;-35
2022/04/18 11:41:09;;;;;;;1.58;1.00;;;;;;;9.89;67.57;99835.50;5027682;28;20037;-31
2022/04/18 11:43:34;;;;;;;1.58;0.98;;;;;;;9.88;63.00;99844.53;5026387;28;20107;-33
2022/04/18 11:46:08;;;;;;;1.75;1.05;;;;;;;10.00;63.36;99826.78;5027871;28;20438;-33
2022/04/18 11:48:35;;;;;;;2.28;1.58;;;;;;;10.40;62.95;99820.22;5027388;28;20098;-31
2022/04/18 11:51:00;;;;;;;1.65;1.00;;;;;;;10.48;66.72;99805.78;5026229;28;20128;-32
2022/04/18 11:53:34;;;;;;;1.25;1.15;;;;;;;10.38;61.88;99822.28;5027474;28;20470;-31
2022/04/18 11:56:03;;;;;;;1.33;1.00;;;;;;;10.16;66.82;99813.91;5026211;28;20053;-31
2022/04/18 11:58:35;;;;;;;1.80;1.17;;;;;;;10.08;65.00;99822.22;5026046;28;20033;-37
2022/04/18 12:06:46;;;;;;;2.30;1.50;;;;;;;11.01;63.91;99810.38;5027533;28;20043;-29
2022/04/18 12:09:16;;;;;;;3.28;1.17;;;;;;;10.61;65.28;99800.28;5027448;28;20021;-29